Airfield :
LOGIN :

Register | Disclaimer

   EN    FR    IT 

 










Legend :    VFR   Marginal VFR   IFR   Intensive IFR   Very Intensive IFR
Visi :
Ceiling :
>= 8 km
>= 3000ft
5 to 8 km
1000 to 3000 ft
1500m to 5 km
500 to 1000 ft
800 to 1500m
200 to 500 ft
< 800m
< 200 ft
Symbols :   Thunderstorms  Fog  Heavy snow  Heavy precipitations  Wind > 20 kt
SIGMETs :     Misc.  Thunderstorms  Icing  Turbulence  Mountain Waves  Volcanic Ashes







- Airport Elevation : 1325 ft
- IATA code : EBU
- Download approach charts


LFMH - St-Etienne Boutheon

CURRENT METAR :
  • 221900Z AUTO 03010KT CAVOK 18/06 Q1023 NOSIG

EXPIRED METARs :
  • 221830Z AUTO 03011KT CAVOK 19/06 Q1023 NOSIG
  • 221800Z AUTO 01013KT CAVOK 20/06 Q1023 BECMG 36003KT
  • 221730Z AUTO 03011KT 360V060 CAVOK 20/06 Q1023 NOSIG
  • 221700Z AUTO 02012KT 350V050 CAVOK 21/06 Q1023 TEMPO 34015G25KT
  • 221630Z AUTO 02013KT 350V050 CAVOK 21/06 Q1023 TEMPO 34015G25KT
  • 221600Z AUTO 02014KT CAVOK 21/06 Q1023 TEMPO 34015G25KT

TAF TAF LFMH
Valid from the 22 at 15:00 until the 23 at 15:00 UTC


221400Z 2215/2315 34010KT CAVOK
TEMPO 2215/2218 34015G25KT
BECMG 2219/2222 36003KT
BECMG 2309/2312 02008KT
ATIS : +33 4 77 36 17 51
No reported NOTAMs for that airfield.
2 SIGMETs reported for the Marseille FIR (LFMM) :
 
Severe turbulence
LFMM SIGMET 4 VALID 221900/222300 LFPW
LFMM MARSEILLE FIR/UIR SEV TURB FCST WI N4500 E00500 - N4300 E00515 - N4315 E00415 - N4500 E00330 - N4500 E00500 SFC/FL050 STNR WKN=
Severe turbulence
LFMM SIGMET 3 VALID 221500/221900 LFPW
LFMM MARSEILLE FIR/UIR SEV TURB OBS WI N4500 E00500 - N4300 E00515 - N4315 E00415 - N4500 E00330 - N4500 E00500 SFC/FL050 STNR NC=



MET'MAP, your aeronautical weather chart ! - Copyright ORBIFLY December 2007 - Disclaimer

ORBIFLY MET'MAP TEAM :

Programming & Development : Alexandra Zaïnal
Concept & Development : Baudouin d'Aumeries
Co-Development & Prog : Marc-Olivier Méhu
Technical & hardware support : Manuel Goepfert

Contact : metmap@orbifly.com




SOURCES & CREDITS :

   NOAA